Huvudsida
METAR-TAF:

METAR-TAF

Flygplatser :

Midtjyllands Lufthavn

Karup, Danmark

latitud: 56-18N, longitud: 009-07E, höjd: 52 m

Aktuellt väderrapport

Denna rapport gjordes för 20 minuter sedan, klockan 17:20 UTC
Vind 12 kt från väst
Temperatur 10°C
Fuktighet 87%
Tryck 1007 hPa
Sikt 10 km eller mer
Få moln på en höjd av 1200 ft
Spridda moln på en höjd av 2000 ft, Cumulonimbus.
Brutna moln på en höjd av 2500 ft

METAR: EKKA 221720Z 26012KT 9999 FEW012 SCT020CB BKN025 10/08 Q1007

Tid: 19:40 (17:40 UTC)

Väderprognos

Denna rapport gjordes för 24 minuter sedan, klockan 17:16 UTC
Prognos gäller från 22 kl. 18 UTC till 23 kl. 18 UTC
Vind 12 kt från väst
Sikt 10 km eller mer
Spridda moln på en höjd av 3000 ft
Temporärt
från 22 kl. 18 UTC till 23 kl. 15 UTC
Vind 15 kt från väst i byarna ända upp till 25 kt
Sikt: 5000 m
Spridda moln på en höjd av 2200 ft, Cumulonimbus.
regnskurar

TAF: EKKA 221716Z 2218/2318 27012KT 9999 SCT030 TEMPO 2218/2315 28015G25KT 5000 SHRA SCT022CB

Aktuella väderrapporter och prognoser från 4000 flygplatser (METAR- och TAF-rapporter).

De tillgängliga stationerna syns som gula och röda prickar på kartan.

För musen över prickarna för att se namnen på stationerna.

Klicka sedan för att få väderrapporter och prognoser.

För att ändra kartan: Klicka på de gröna knapparna med ett svart kors på för att zooma in; den gröna knappen med ett streck på för att zooma ut; eller på de gröna pilarna för angränsande kartor.


METAR-TAF: